createdAt,value
2022-12-24T00:00:17.108Z,14.27
2022-12-24T00:02:44.923Z,14.30
2022-12-24T00:05:12.784Z,12.13
2022-12-24T00:07:40.348Z,13.75
2022-12-24T00:10:09.796Z,13.40
2022-12-24T00:12:37.411Z,13.13
2022-12-24T00:15:08.106Z,13.07
2022-12-24T00:17:35.662Z,14.00
2022-12-24T00:20:04.452Z,12.30
2022-12-24T00:22:32.038Z,12.95
2022-12-24T00:24:59.635Z,13.13
2022-12-24T00:27:27.150Z,11.45
2022-12-24T00:29:54.798Z,11.95
2022-12-24T00:32:23.852Z,12.77
2022-12-24T00:34:51.369Z,11.85
2022-12-24T00:37:19.123Z,13.10
2022-12-24T00:39:46.689Z,11.25
2022-12-24T00:42:14.251Z,12.75
2022-12-24T00:44:41.939Z,13.10
2022-12-24T00:47:12.148Z,11.65
2022-12-24T00:49:41.347Z,12.65
2022-12-24T00:52:09.052Z,12.68
2022-12-24T00:54:36.781Z,13.32
2022-12-24T00:57:04.519Z,11.85
2022-12-24T00:59:32.073Z,11.65
2022-12-24T01:01:59.844Z,13.00
2022-12-24T01:04:47.444Z,10.90
2022-12-24T01:07:16.383Z,10.98
2022-12-24T01:09:44.033Z,11.10
2022-12-24T01:12:11.790Z,10.82
2022-12-24T01:14:39.481Z,11.55
2022-12-24T01:17:07.158Z,11.07
2022-12-24T01:19:34.822Z,10.43
2022-12-24T01:22:02.346Z,11.82
2022-12-24T01:24:31.218Z,11.50
2022-12-24T01:26:58.872Z,11.68
2022-12-24T01:29:26.422Z,11.68
2022-12-24T01:31:53.943Z,12.20
2022-12-24T01:34:21.458Z,11.35
2022-12-24T01:36:49.054Z,11.95
2022-12-24T01:39:16.985Z,11.35
2022-12-24T01:42:03.515Z,12.93
2022-12-24T01:44:37.013Z,12.60
2022-12-24T01:47:10.196Z,11.35
2022-12-24T01:49:40.224Z,11.90
2022-12-24T01:52:11.879Z,11.02
2022-12-24T01:54:44.988Z,13.02
2022-12-24T01:57:19.187Z,10.65
2022-12-24T01:59:52.365Z,11.73
2022-12-24T02:02:21.074Z,12.00
2022-12-24T02:04:54.731Z,11.05
2022-12-24T02:07:22.537Z,11.35
2022-12-24T02:09:52.362Z,11.55
2022-12-24T02:12:21.286Z,11.60
2022-12-24T02:14:48.907Z,12.27
2022-12-24T02:17:26.879Z,11.75
2022-12-24T02:20:22.866Z,11.65
2022-12-24T02:23:09.054Z,11.40
2022-12-24T02:25:56.204Z,11.50
2022-12-24T02:28:41.444Z,11.65
2022-12-24T02:31:16.917Z,10.15
2022-12-24T02:33:50.574Z,11.30
2022-12-24T02:36:24.956Z,12.85
2022-12-24T02:39:01.274Z,11.35
2022-12-24T02:41:52.923Z,10.55
2022-12-24T02:44:23.187Z,11.75
2022-12-24T02:46:53.221Z,11.57
2022-12-24T02:49:21.017Z,11.88
2022-12-24T02:51:48.625Z,10.80
2022-12-24T02:54:16.873Z,9.20
2022-12-24T02:56:58.968Z,10.05
2022-12-24T02:59:58.371Z,10.73
2022-12-24T03:02:37.294Z,11.43
2022-12-24T03:05:13.836Z,11.30
2022-12-24T03:07:48.571Z,11.75
2022-12-24T03:10:21.483Z,10.57
2022-12-24T03:12:53.038Z,11.70
2022-12-24T03:15:25.022Z,10.48
2022-12-24T03:17:56.910Z,11.07
2022-12-24T03:20:28.055Z,11.00
2022-12-24T03:22:55.639Z,11.18
2022-12-24T03:25:26.210Z,10.18
2022-12-24T03:27:54.710Z,10.30
2022-12-24T03:30:22.355Z,10.38
2022-12-24T03:32:50.006Z,10.00
2022-12-24T03:35:19.152Z,10.32
2022-12-24T03:37:46.752Z,10.32
2022-12-24T03:40:14.848Z,10.15
2022-12-24T03:42:42.587Z,10.60
2022-12-24T03:45:11.121Z,10.15
2022-12-24T03:47:38.681Z,10.48
2022-12-24T03:50:07.590Z,10.57
2022-12-24T03:52:36.587Z,10.15
2022-12-24T03:55:04.485Z,9.40
2022-12-24T03:57:32.156Z,9.45
2022-12-24T03:59:59.732Z,9.15
2022-12-24T04:02:27.505Z,9.10
2022-12-24T04:04:55.220Z,9.55
2022-12-24T04:07:22.777Z,9.52
2022-12-24T04:09:51.698Z,9.38
2022-12-24T04:12:19.390Z,8.27
2022-12-24T04:14:47.145Z,9.43
2022-12-24T04:17:14.682Z,8.50
2022-12-24T04:19:42.275Z,9.10
2022-12-24T04:22:10.016Z,9.57
2022-12-24T04:24:37.865Z,9.32
2022-12-24T04:27:06.773Z,8.77
2022-12-24T04:29:34.465Z,8.93
2022-12-24T04:32:02.464Z,8.25
2022-12-24T04:34:30.121Z,8.07
2022-12-24T04:36:57.709Z,7.63
2022-12-24T04:39:25.291Z,7.75
2022-12-24T04:41:52.921Z,7.28
2022-12-24T04:44:21.823Z,7.50
2022-12-24T04:46:49.417Z,8.13
2022-12-24T04:49:17.766Z,8.02
2022-12-24T04:51:45.416Z,7.15
2022-12-24T04:54:13.067Z,7.20
2022-12-24T04:56:40.646Z,7.50
2022-12-24T04:59:08.239Z,6.97
2022-12-24T05:01:37.331Z,7.47
2022-12-24T05:04:06.797Z,6.53
2022-12-24T05:06:34.713Z,6.95
2022-12-24T05:09:02.364Z,6.90
2022-12-24T05:11:30.132Z,7.35
2022-12-24T05:13:57.910Z,7.15
2022-12-24T05:16:26.043Z,7.43
2022-12-24T05:18:54.995Z,7.63
2022-12-24T05:21:25.226Z,6.82
2022-12-24T05:24:11.389Z,7.97
2022-12-24T05:26:42.839Z,6.85
2022-12-24T05:29:12.967Z,7.22
2022-12-24T05:31:41.368Z,7.40
2022-12-24T05:34:11.062Z,7.25
2022-12-24T05:36:38.974Z,7.15
2022-12-24T05:39:13.496Z,7.25
2022-12-24T05:41:43.220Z,6.68
2022-12-24T05:44:10.959Z,7.18
2022-12-24T05:46:38.880Z,7.40
2022-12-24T05:49:06.633Z,6.63
2022-12-24T05:51:35.718Z,7.18
2022-12-24T05:54:03.675Z,7.05
2022-12-24T05:56:31.300Z,7.65
2022-12-24T05:58:59.303Z,7.25
2022-12-24T06:01:27.367Z,7.55
2022-12-24T06:03:55.108Z,6.82
2022-12-24T06:06:24.964Z,6.53
2022-12-24T06:08:55.213Z,6.70
2022-12-24T06:11:25.084Z,7.22
2022-12-24T06:13:53.847Z,7.55
2022-12-24T06:16:23.077Z,6.90
2022-12-24T06:18:51.320Z,6.57
2022-12-24T06:21:20.042Z,7.40
2022-12-24T06:23:48.084Z,12.23
2022-12-24T06:26:20.358Z,7.75
2022-12-24T06:28:49.574Z,8.10
2022-12-24T06:31:18.889Z,6.93
2022-12-24T06:33:46.689Z,6.75
2022-12-24T06:36:18.164Z,7.28
2022-12-24T06:38:46.209Z,7.22
2022-12-24T06:41:14.214Z,7.35
2022-12-24T06:43:46.775Z,6.65
2022-12-24T06:46:15.399Z,6.40
2022-12-24T06:48:44.737Z,6.65
2022-12-24T06:51:12.762Z,8.10
2022-12-24T06:53:41.162Z,7.28
2022-12-24T06:56:10.445Z,6.60
2022-12-24T06:58:38.948Z,6.32
2022-12-24T07:01:09.965Z,6.78
2022-12-24T07:03:37.994Z,6.57
2022-12-24T07:06:06.527Z,6.60
2022-12-24T07:08:36.205Z,6.90
2022-12-24T07:11:05.152Z,6.82
2022-12-24T07:13:34.275Z,6.25
2022-12-24T07:16:05.195Z,7.05
2022-12-24T07:18:35.164Z,6.30
2022-12-24T07:21:04.777Z,6.90
2022-12-24T07:23:32.453Z,6.45
2022-12-24T07:26:02.085Z,6.28
2022-12-24T07:28:30.176Z,7.47
2022-12-24T07:30:58.962Z,5.93
2022-12-24T07:33:27.170Z,7.20
2022-12-24T07:36:06.985Z,6.13
2022-12-24T07:38:35.710Z,6.53
2022-12-24T07:41:03.580Z,6.00
2022-12-24T07:43:33.763Z,6.07
2022-12-24T07:46:01.782Z,6.07
2022-12-24T07:48:31.126Z,6.40
2022-12-24T07:50:58.851Z,5.53
2022-12-24T07:53:29.035Z,5.13
2022-12-24T07:55:56.695Z,5.13
2022-12-24T07:58:25.283Z,5.03
2022-12-24T08:00:57.698Z,4.88
2022-12-24T08:03:25.698Z,4.75
2022-12-24T08:05:53.900Z,4.53
2022-12-24T08:08:21.528Z,4.47
2022-12-24T08:10:50.443Z,4.63
2022-12-24T08:13:18.827Z,4.55
2022-12-24T08:15:46.588Z,4.25
2022-12-24T08:18:14.144Z,4.82
2022-12-24T08:20:42.385Z,4.65
2022-12-24T08:23:10.577Z,4.28
2022-12-24T08:25:38.838Z,3.85
2022-12-24T08:28:07.839Z,4.35
2022-12-24T08:30:36.093Z,4.85
2022-12-24T08:33:03.772Z,4.38
2022-12-24T08:35:31.673Z,4.20
2022-12-24T08:37:59.411Z,4.55
2022-12-24T08:40:27.311Z,4.63
2022-12-24T08:42:54.992Z,4.57
2022-12-24T08:45:24.227Z,4.05
2022-12-24T08:47:51.866Z,4.45
2022-12-24T08:50:19.872Z,4.50
2022-12-24T08:52:47.822Z,4.40
2022-12-24T08:55:15.490Z,4.47
2022-12-24T08:57:43.194Z,4.75
2022-12-24T09:00:14.101Z,5.32
2022-12-24T09:02:43.170Z,5.28
2022-12-24T09:05:11.150Z,4.68
2022-12-24T09:07:38.775Z,5.15
2022-12-24T09:10:07.947Z,6.47
2022-12-24T09:12:35.645Z,5.78
2022-12-24T09:15:04.616Z,6.03
2022-12-24T09:17:32.659Z,5.97
2022-12-24T09:20:01.629Z,6.05
2022-12-24T09:22:29.486Z,6.63
2022-12-24T09:24:57.247Z,7.30
2022-12-24T09:27:24.905Z,8.00
2022-12-24T09:29:52.592Z,7.60
2022-12-24T09:32:20.168Z,8.38
2022-12-24T09:34:47.949Z,8.02
2022-12-24T09:37:16.877Z,7.75
2022-12-24T09:39:44.500Z,8.02
2022-12-24T09:42:21.599Z,7.97
2022-12-24T09:44:55.151Z,7.80
2022-12-24T09:47:30.094Z,8.00
2022-12-24T09:50:00.752Z,7.63
2022-12-24T09:52:34.242Z,7.20
2022-12-24T09:55:08.197Z,6.50
2022-12-24T09:57:39.868Z,6.90
2022-12-24T10:00:19.086Z,6.85
2022-12-24T10:02:47.067Z,7.00
2022-12-24T10:05:16.579Z,6.15
2022-12-24T10:07:51.610Z,7.38
2022-12-24T10:10:38.433Z,7.45
2022-12-24T10:13:15.308Z,7.25
2022-12-24T10:15:55.573Z,6.55
2022-12-24T10:18:30.745Z,7.25
2022-12-24T10:21:05.110Z,7.25
2022-12-24T10:23:39.610Z,6.88
2022-12-24T10:26:16.397Z,7.25
2022-12-24T10:28:48.707Z,6.28
2022-12-24T10:31:16.683Z,6.03
2022-12-24T10:33:47.976Z,6.65
2022-12-24T10:36:18.675Z,6.82
2022-12-24T10:38:47.978Z,7.22
2022-12-24T10:41:16.730Z,6.97
2022-12-24T10:43:45.860Z,6.93
2022-12-24T10:46:19.775Z,7.70
2022-12-24T10:48:52.873Z,8.13
2022-12-24T10:51:25.783Z,8.65
2022-12-24T10:53:59.835Z,7.95
2022-12-24T10:56:27.361Z,8.27
2022-12-24T10:58:56.137Z,7.25
2022-12-24T11:01:45.229Z,7.28
2022-12-24T11:04:18.737Z,7.15
2022-12-24T11:07:00.693Z,6.95
2022-12-24T11:09:31.854Z,6.78
2022-12-24T11:12:06.908Z,6.97
2022-12-24T11:14:39.624Z,6.70
2022-12-24T11:17:07.388Z,7.25
2022-12-24T11:19:38.752Z,7.72
2022-12-24T11:22:08.301Z,6.88
2022-12-24T11:24:43.746Z,6.57
2022-12-24T11:27:30.648Z,7.38
2022-12-24T11:30:21.643Z,7.18
2022-12-24T11:32:50.769Z,7.30
2022-12-24T11:35:22.202Z,7.90
2022-12-24T11:37:50.150Z,7.40
2022-12-24T11:40:26.561Z,7.75
2022-12-24T11:43:00.264Z,7.63
2022-12-24T11:45:30.971Z,6.85
2022-12-24T11:47:59.229Z,9.00
2022-12-24T11:50:29.471Z,7.88
2022-12-24T11:53:06.077Z,8.35
2022-12-24T11:55:44.782Z,9.30
2022-12-24T11:58:24.434Z,9.40
2022-12-24T12:00:53.592Z,11.65
2022-12-24T12:03:31.379Z,12.15
2022-12-24T12:06:02.371Z,11.57
2022-12-24T12:08:31.778Z,9.85
2022-12-24T12:11:01.132Z,9.82
2022-12-24T12:13:33.251Z,9.15
2022-12-24T12:16:21.238Z,9.48
2022-12-24T12:18:55.843Z,8.68
2022-12-24T12:21:27.482Z,8.40
2022-12-24T12:24:01.955Z,9.80
2022-12-24T12:26:32.105Z,9.23
2022-12-24T12:29:05.337Z,8.50
2022-12-24T12:31:36.480Z,9.30
2022-12-24T12:34:08.106Z,9.30
2022-12-24T12:36:42.998Z,9.88
2022-12-24T12:39:11.661Z,9.15
2022-12-24T12:41:51.575Z,9.88
2022-12-24T12:44:38.361Z,9.88
2022-12-24T12:47:23.822Z,8.90
2022-12-24T12:50:00.023Z,9.48
2022-12-24T12:52:42.147Z,10.40
2022-12-24T12:55:25.192Z,9.85
2022-12-24T12:58:00.777Z,9.95
2022-12-24T13:00:30.664Z,10.05
2022-12-24T13:03:22.110Z,10.25
2022-12-24T13:06:07.776Z,9.02
2022-12-24T13:09:06.495Z,9.40
2022-12-24T13:11:55.086Z,10.27
2022-12-24T13:14:41.945Z,9.63
2022-12-24T13:17:25.342Z,9.55
2022-12-24T13:20:15.347Z,9.38
2022-12-24T13:22:49.798Z,9.77
2022-12-24T13:25:23.572Z,10.30
2022-12-24T13:27:51.094Z,9.20
2022-12-24T13:30:37.841Z,9.82
2022-12-24T13:33:06.241Z,9.55
2022-12-24T13:35:39.230Z,10.13
2022-12-24T13:38:43.515Z,9.48
2022-12-24T13:41:50.661Z,9.50
2022-12-24T13:44:20.872Z,8.80
2022-12-24T13:46:52.915Z,9.70
2022-12-24T13:49:22.735Z,8.32
2022-12-24T13:51:51.044Z,7.45
2022-12-24T13:54:28.489Z,8.82
2022-12-24T13:56:56.310Z,8.68
2022-12-24T13:59:38.338Z,7.05
2022-12-24T14:02:21.280Z,6.47
2022-12-24T14:04:51.902Z,7.40
2022-12-24T14:07:21.119Z,6.28
2022-12-24T14:09:51.298Z,6.95
2022-12-24T14:12:49.532Z,5.97
2022-12-24T14:16:06.032Z,6.20
2022-12-24T14:18:39.594Z,5.65
2022-12-24T14:21:09.246Z,6.22
2022-12-24T14:23:53.937Z,5.90
2022-12-24T14:26:24.241Z,5.47
2022-12-24T14:28:56.639Z,6.07
2022-12-24T14:31:27.982Z,6.05
2022-12-24T14:34:09.510Z,5.53
2022-12-24T14:36:37.626Z,5.85
2022-12-24T14:39:07.549Z,7.00
2022-12-24T14:41:44.928Z,6.50
2022-12-24T14:44:24.496Z,6.22
2022-12-24T14:46:55.942Z,7.60
2022-12-24T14:49:35.812Z,7.45
2022-12-24T14:52:30.763Z,7.13
2022-12-24T14:54:56.931Z,8.13
2022-12-24T14:57:26.314Z,6.28
2022-12-24T14:59:55.720Z,7.68
2022-12-24T15:02:44.421Z,6.50
2022-12-24T15:05:17.157Z,7.13
2022-12-24T15:07:48.410Z,7.43
2022-12-24T15:10:29.204Z,7.07
2022-12-24T15:12:58.635Z,7.82
2022-12-24T15:15:26.299Z,7.25
2022-12-24T15:17:55.685Z,7.72
2022-12-24T15:20:27.510Z,7.65
2022-12-24T15:22:57.350Z,7.70
2022-12-24T15:25:27.070Z,8.60
2022-12-24T15:27:54.832Z,6.97
2022-12-24T15:30:25.306Z,7.13
2022-12-24T15:32:55.142Z,7.50
2022-12-24T15:35:54.769Z,7.25
2022-12-24T15:38:30.707Z,6.75
2022-12-24T15:40:59.256Z,5.82
2022-12-24T15:43:27.381Z,6.05
2022-12-24T15:45:55.585Z,6.45
2022-12-24T15:48:25.854Z,6.50
2022-12-24T15:50:57.656Z,6.20
2022-12-24T15:53:28.115Z,6.07
2022-12-24T15:56:08.214Z,6.07
2022-12-24T15:58:38.093Z,5.75
2022-12-24T16:01:26.563Z,7.63
2022-12-24T16:04:00.375Z,8.07
2022-12-24T16:06:29.701Z,8.05
2022-12-24T16:08:58.669Z,8.98
2022-12-24T16:11:34.228Z,9.07
2022-12-24T16:14:06.561Z,9.85
2022-12-24T16:16:37.601Z,11.07
2022-12-24T16:19:07.214Z,9.15
2022-12-24T16:21:39.055Z,9.07
2022-12-24T16:24:16.518Z,9.10
2022-12-24T16:26:44.254Z,7.28
2022-12-24T16:29:12.064Z,7.35
2022-12-24T16:31:47.675Z,7.57
2022-12-24T16:34:17.052Z,7.40
2022-12-24T16:36:47.364Z,7.38
2022-12-24T16:39:24.758Z,8.45
2022-12-24T16:42:10.723Z,8.23
2022-12-24T16:44:38.752Z,7.80
2022-12-24T16:47:08.417Z,7.72
2022-12-24T16:49:38.159Z,8.10
2022-12-24T16:52:07.956Z,7.43
2022-12-24T16:54:35.566Z,8.00
2022-12-24T16:57:03.204Z,6.93
2022-12-24T16:59:32.575Z,6.60
2022-12-24T17:02:00.434Z,6.90
2022-12-24T17:04:28.133Z,6.90
2022-12-24T17:06:55.857Z,7.10
2022-12-24T17:09:24.798Z,6.43
2022-12-24T17:11:52.389Z,5.88
2022-12-24T17:14:20.908Z,6.88
2022-12-24T17:16:48.884Z,7.95
2022-12-24T17:19:18.086Z,7.97
2022-12-24T17:21:46.414Z,7.35
2022-12-24T17:24:14.406Z,8.65
2022-12-24T17:26:43.565Z,7.47
2022-12-24T17:29:11.837Z,7.93
2022-12-24T17:31:40.824Z,9.65
2022-12-24T17:34:08.475Z,7.68
2022-12-24T17:36:36.197Z,8.43
2022-12-24T17:39:04.058Z,8.70
2022-12-24T17:41:31.596Z,7.80
2022-12-24T17:44:00.679Z,7.45
2022-12-24T17:46:28.391Z,7.22
2022-12-24T17:48:56.256Z,7.28
2022-12-24T17:51:24.272Z,7.53
2022-12-24T17:53:54.964Z,8.70
2022-12-24T17:56:24.321Z,8.90
2022-12-24T17:58:52.009Z,8.93
2022-12-24T18:01:25.707Z,9.63
2022-12-24T18:03:54.308Z,8.30
2022-12-24T18:06:22.048Z,8.30
2022-12-24T18:08:49.656Z,7.85
2022-12-24T18:11:19.182Z,8.10
2022-12-24T18:13:47.082Z,8.52
2022-12-24T18:16:16.823Z,6.30
2022-12-24T18:18:45.923Z,7.28
2022-12-24T18:21:13.701Z,6.32
2022-12-24T18:23:43.512Z,6.22
2022-12-24T18:26:11.841Z,7.20
2022-12-24T18:28:39.689Z,8.30
2022-12-24T18:31:09.311Z,7.88
2022-12-24T18:33:37.751Z,9.10
2022-12-24T18:36:07.795Z,8.63
2022-12-24T18:38:35.461Z,7.68
2022-12-24T18:41:04.216Z,7.20
2022-12-24T18:43:31.896Z,6.47
2022-12-24T18:45:59.548Z,6.55
2022-12-24T18:48:27.311Z,7.20
2022-12-24T18:50:56.222Z,5.50
2022-12-24T18:53:25.386Z,5.07
2022-12-24T18:55:53.365Z,4.70
2022-12-24T18:58:21.173Z,4.47
2022-12-24T19:00:48.933Z,4.75
2022-12-24T19:03:16.970Z,4.32
2022-12-24T19:05:44.593Z,4.70
2022-12-24T19:11:01.101Z,5.28
2022-12-24T19:13:28.718Z,4.70
2022-12-24T19:15:56.626Z,4.57
2022-12-24T19:18:24.570Z,3.95
2022-12-24T19:20:52.119Z,4.43
2022-12-24T19:23:20.048Z,4.45
2022-12-24T19:25:47.674Z,4.65
2022-12-24T19:28:20.159Z,4.65
2022-12-24T19:30:50.404Z,4.38
2022-12-24T19:33:18.038Z,4.53
2022-12-24T19:35:45.739Z,5.70
2022-12-24T19:38:13.707Z,5.30
2022-12-24T19:40:41.458Z,7.13
2022-12-24T19:43:09.022Z,5.65
2022-12-24T19:45:37.995Z,5.15
2022-12-24T19:48:06.125Z,5.43
2022-12-24T19:50:33.745Z,6.38
2022-12-24T19:53:01.613Z,6.45
2022-12-24T19:55:29.181Z,5.25
2022-12-24T19:57:56.848Z,4.40
2022-12-24T20:00:24.575Z,5.63
2022-12-24T20:02:53.711Z,5.60
2022-12-24T20:05:21.609Z,6.20
2022-12-24T20:07:49.195Z,6.97
2022-12-24T20:10:16.926Z,6.57
2022-12-24T20:12:44.545Z,5.78
2022-12-24T20:15:12.215Z,5.10
2022-12-24T20:17:39.831Z,4.38
2022-12-24T20:20:09.814Z,5.07
2022-12-24T20:22:38.001Z,5.28
2022-12-24T20:25:06.213Z,5.40
2022-12-24T20:27:33.735Z,4.63
2022-12-24T20:30:01.268Z,5.63
2022-12-24T20:32:29.673Z,5.38
2022-12-24T20:34:57.218Z,5.82
2022-12-24T20:37:26.207Z,7.18
2022-12-24T20:39:55.247Z,6.60
2022-12-24T20:42:23.102Z,7.40
2022-12-24T20:44:50.718Z,7.88
2022-12-24T20:47:18.319Z,8.10
2022-12-24T20:49:45.996Z,8.10
2022-12-24T20:52:13.707Z,7.25
2022-12-24T20:54:42.876Z,6.93
2022-12-24T20:57:10.419Z,6.10
2022-12-24T20:59:38.341Z,6.38
2022-12-24T21:02:06.248Z,6.70
2022-12-24T21:04:34.031Z,7.15
2022-12-24T21:07:01.572Z,6.57
2022-12-24T21:09:29.387Z,5.80
2022-12-24T21:12:15.726Z,5.75
2022-12-24T21:14:43.228Z,4.75
2022-12-24T21:17:15.762Z,4.55
2022-12-24T21:19:43.726Z,5.03
2022-12-24T21:22:11.385Z,4.15
2022-12-24T21:24:39.162Z,4.22
2022-12-24T21:27:08.074Z,4.95
2022-12-24T21:29:35.598Z,4.50
2022-12-24T21:32:03.141Z,4.60
2022-12-24T21:34:30.980Z,4.47
2022-12-24T21:36:58.602Z,4.97
2022-12-24T21:39:26.380Z,6.10
2022-12-24T21:41:54.103Z,5.57
2022-12-24T21:44:22.981Z,6.00
2022-12-24T21:46:50.499Z,5.63
2022-12-24T21:49:35.620Z,5.50
2022-12-24T21:52:03.199Z,4.97
2022-12-24T21:54:33.127Z,5.50
2022-12-24T21:57:20.224Z,6.32
2022-12-24T21:59:51.033Z,4.85
2022-12-24T22:02:19.290Z,4.72
2022-12-24T22:04:47.344Z,5.75
2022-12-24T22:07:39.093Z,6.07
2022-12-24T22:10:25.640Z,5.82
2022-12-24T22:12:53.727Z,5.60
2022-12-24T22:15:22.747Z,5.72
2022-12-24T22:17:50.431Z,5.25
2022-12-24T22:20:18.219Z,5.45
2022-12-24T22:22:45.769Z,5.90
2022-12-24T22:25:13.338Z,6.35
2022-12-24T22:27:41.025Z,6.38
2022-12-24T22:30:09.804Z,5.45
2022-12-24T22:32:38.670Z,5.03
2022-12-24T22:35:06.952Z,5.88
2022-12-24T22:37:34.571Z,5.53
2022-12-24T22:40:02.357Z,5.25
2022-12-24T22:42:33.097Z,5.28
2022-12-24T22:45:00.770Z,5.70
2022-12-24T22:47:28.454Z,6.50
2022-12-24T22:49:57.299Z,5.93
2022-12-24T22:52:25.314Z,6.55
2022-12-24T22:54:53.003Z,6.00
2022-12-24T22:57:20.593Z,5.97
2022-12-24T22:59:49.247Z,6.85
2022-12-24T23:02:22.107Z,6.32
2022-12-24T23:04:53.453Z,7.88
2022-12-24T23:07:22.517Z,6.25
2022-12-24T23:09:50.283Z,7.80
2022-12-24T23:12:38.438Z,7.03
2022-12-24T23:15:05.981Z,6.43
2022-12-24T23:17:33.559Z,6.57
2022-12-24T23:20:02.184Z,6.50
2022-12-24T23:22:31.080Z,5.97
2022-12-24T23:24:58.737Z,6.13
2022-12-24T23:27:26.462Z,6.20
2022-12-24T23:29:54.046Z,5.50
2022-12-24T23:32:23.134Z,6.22
2022-12-24T23:34:50.705Z,5.80
2022-12-24T23:37:18.398Z,6.75
2022-12-24T23:39:47.251Z,6.38
2022-12-24T23:42:14.846Z,5.82
2022-12-24T23:44:42.473Z,6.45
2022-12-24T23:47:10.133Z,6.30
2022-12-24T23:49:37.671Z,6.82
2022-12-24T23:52:05.491Z,5.80
2022-12-24T23:54:33.051Z,6.07
2022-12-24T23:57:02.336Z,6.03
2022-12-24T23:59:29.924Z,6.05
